Martha's Vineyard, MA

7:19 PM EST on December 03, 2016 (GMT -0500)
Martha's Vineyard | | Change Station

Elev 69 ft 41.39 °N, 70.61 °W | Updated 26 minutes ago

Partly Cloudy
Partly Cloudy
42 °F
Feels Like 35 °F
N
13
Wind Variable Wind from NW
Gusts 21 mph

Today
High -- | Low -- °F
--% Chance of Precip.
Yesterday
High -- | Low -- °F
Precip. -- in
Pressure 29.99 in
Visibility 10.0 miles
Clouds Few 6500 ft
Windchill 35 °F
Dew Point 26 °F
Humidity 53%
Rainfall 0.00 in
Snow Depth Not available.
6:51 AM 4:13 PM
Waxing Crescent, 18% visible
METAR KMVY 032353Z AUTO 32011G18KT 10SM FEW065 06/M03 A2999 RMK AO2 SLP156 T00561033 10089 20056 51028 TSNO
Pressure 29.99 in
Visibility 10.0 miles
Clouds Few 6500 ft
Windchill 35 °F
Dew Point 26 °F
Humidity 53%
Rainfall 0.00 in
Snow Depth Not available.
6:51 AM 4:13 PM
Waxing Crescent, 18% visible
METAR KMVY 032353Z AUTO 32011G18KT 10SM FEW065 06/M03 A2999 RMK AO2 SLP156 T00561033 10089 20056 51028 TSNO

10-Day Weather Forecast

Almanac

Astronomy

Dec. 03, 2016 Rise Set
Actual Time
Civil Twilight
Nautical Twilight
Astronomical Twilight
Moon
Length of Visible Light
Length of Day
Tomorrow will be .
, % of the Moon is Illuminated

Today's Extremes

State Highs State Lows

Community

WunderPhotos

Upload Photos

1,955,538 photos uploaded!

WunderBlog® & News

Nearby

Air Quality

  Air Quality AQ Index Pollutant
Not available.

Snow Depth

Station Depth Elevation

Earthquake Activity

City Distance Mag. Time & Date
Minimum magnitude displayed is 2.5.

Coastal Water Temperatures

Place Temperature

Stations

Nearby Weather Stations

Station Location Temp. Windchill Dew Point Humidity Wind Precip. Elev Updated Type
                   

Watches & Warnings

There are currently no watches in effect.